Time;durP1;ratioP1;P1;durP2;ratioP2;P2;SDS_P1;SDS_P2;PMS_P1;PMS_P2;Temp;Humidity;BMP_temperature;BMP_pressure;BME280_temperature;BME280_humidity;BME280_pressure;Samples;Min_cycle;Max_cycle;Signal;HPM_P1;HPM_P2
2022/03/16 00:01:29;;;;;;;32.13;20.08;;;;;;;4.64;82.73;102236.16;5067310;28;20020;-76
2022/03/16 00:03:54;;;;;;;32.78;20.33;;;;;;;4.60;82.88;102244.25;5066115;28;20353;-76
2022/03/16 00:06:19;;;;;;;34.05;19.92;;;;;;;4.55;82.42;102241.69;5064105;28;20020;-76
2022/03/16 00:08:44;;;;;;;35.83;19.73;;;;;;;4.50;82.87;102239.16;5064787;28;20020;-76
2022/03/16 00:11:10;;;;;;;35.55;20.17;;;;;;;4.47;82.96;102238.38;5063704;28;20049;-76
2022/03/16 00:13:35;;;;;;;32.58;20.73;;;;;;;4.42;82.67;102241.13;5065538;28;20138;-76
2022/03/16 00:16:00;;;;;;;34.42;20.13;;;;;;;4.38;82.68;102244.81;5049552;28;20502;-76
2022/03/16 00:18:26;;;;;;;37.47;20.88;;;;;;;4.36;82.99;102249.28;5065598;28;20055;-76
2022/03/16 00:20:52;;;;;;;37.13;21.27;;;;;;;4.30;82.90;102249.44;5065280;28;20040;-76
2022/03/16 00:23:17;;;;;;;35.75;21.77;;;;;;;4.28;83.01;102240.63;5067692;28;20090;-76
2022/03/16 00:25:43;;;;;;;38.17;20.33;;;;;;;4.24;83.25;102242.47;5066475;28;20706;-76
2022/03/16 00:28:08;;;;;;;34.53;20.83;;;;;;;4.22;83.31;102244.31;5060849;28;20025;-76
2022/03/16 00:30:36;;;;;;;33.47;20.13;;;;;;;4.15;83.45;102246.22;5066640;28;20040;-76
2022/03/16 00:33:01;;;;;;;33.55;19.88;;;;;;;4.14;83.09;102254.25;5062897;28;20028;-76
2022/03/16 00:35:26;;;;;;;34.83;21.00;;;;;;;4.14;83.44;102254.25;5064688;28;20043;-76
2022/03/16 00:37:51;;;;;;;32.55;20.50;;;;;;;4.16;84.07;102249.78;5066755;28;20039;-76
2022/03/16 00:40:17;;;;;;;36.38;23.13;;;;;;;4.18;83.86;102242.63;5066566;28;20036;-76
2022/03/16 00:42:42;;;;;;;40.60;22.23;;;;;;;4.22;84.71;102238.09;5067664;28;20082;-76
2022/03/16 00:45:08;;;;;;;39.38;23.00;;;;;;;4.20;84.64;102236.38;5063632;28;20485;-76
2022/03/16 00:47:33;;;;;;;37.03;23.75;;;;;;;4.20;84.70;102241.69;5061397;28;20033;-76
2022/03/16 00:49:58;;;;;;;35.50;23.40;;;;;;;4.20;84.92;102241.69;5064932;28;20024;-76
2022/03/16 00:52:24;;;;;;;39.92;24.42;;;;;;;4.19;84.84;102239.06;5063760;28;20119;-76
2022/03/16 00:54:49;;;;;;;36.05;23.48;;;;;;;4.19;85.43;102236.41;5054096;28;20056;-76
2022/03/16 00:57:14;;;;;;;35.85;23.23;;;;;;;4.20;85.22;102243.44;5064716;28;20107;-76
2022/03/16 00:59:40;;;;;;;37.80;24.35;;;;;;;4.23;85.36;102245.16;5068125;28;20037;-76
2022/03/16 01:02:05;;;;;;;37.03;23.75;;;;;;;4.25;85.24;102238.03;5069719;28;20067;-76
2022/03/16 01:04:30;;;;;;;37.00;25.38;;;;;;;4.25;85.40;102236.25;5068387;28;20027;-76
2022/03/16 01:06:58;;;;;;;35.47;22.48;;;;;;;4.30;86.17;102242.31;5068971;28;20443;-76
2022/03/16 01:09:24;;;;;;;40.00;25.30;;;;;;;4.33;86.91;102236.03;5068481;28;20032;-76
2022/03/16 01:11:50;;;;;;;39.25;24.73;;;;;;;4.38;86.71;102234.16;5070914;28;20079;-76
2022/03/16 01:14:16;;;;;;;38.90;24.23;;;;;;;4.37;85.90;102229.75;5070187;28;20112;-76
2022/03/16 01:16:41;;;;;;;45.08;24.15;;;;;;;4.33;86.32;102228.97;5068356;28;20131;-76
2022/03/16 01:19:07;;;;;;;36.10;21.48;;;;;;;4.34;86.05;102232.47;5070007;28;20131;-76
2022/03/16 01:21:33;;;;;;;37.83;23.45;;;;;;;4.30;85.63;102229.00;5065167;28;20028;-76
2022/03/16 01:23:58;;;;;;;35.95;21.55;;;;;;;4.30;85.62;102231.66;5065131;28;20032;-76
2022/03/16 01:26:24;;;;;;;34.38;22.05;;;;;;;4.29;86.22;102221.06;5067568;28;20032;-76
2022/03/16 01:28:49;;;;;;;37.00;22.65;;;;;;;4.29;86.11;102221.06;5068565;28;20036;-76
2022/03/16 01:31:14;;;;;;;35.95;22.98;;;;;;;4.31;87.00;102227.25;5066251;28;20032;-76
2022/03/16 01:33:40;;;;;;;37.80;23.73;;;;;;;4.29;86.03;102224.63;5071267;28;20550;-76
2022/03/16 01:36:05;;;;;;;35.22;22.77;;;;;;;4.28;85.81;102232.63;5068932;28;20033;-76
2022/03/16 01:38:30;;;;;;;35.08;22.35;;;;;;;4.26;85.86;102231.78;5069793;28;20517;-76
2022/03/16 01:40:56;;;;;;;32.30;21.77;;;;;;;4.25;86.04;102222.06;5068749;28;20047;-76
2022/03/16 01:43:21;;;;;;;40.03;23.10;;;;;;;4.26;86.34;102216.72;5070751;28;20491;-75
2022/03/16 01:45:49;;;;;;;37.25;23.00;;;;;;;4.26;86.16;102210.50;5051072;28;20039;-76
2022/03/16 01:48:14;;;;;;;33.33;21.15;;;;;;;4.25;86.17;102206.97;5069769;28;20043;-76
2022/03/16 01:50:40;;;;;;;39.67;23.30;;;;;;;4.26;86.84;102194.53;5069306;28;20040;-76
2022/03/16 01:53:05;;;;;;;34.45;23.85;;;;;;;4.25;86.67;102195.47;5069801;28;20028;-76
2022/03/16 01:55:30;;;;;;;34.95;21.15;;;;;;;4.26;87.08;102197.19;5070006;28;20533;-76
2022/03/16 01:57:57;;;;;;;38.13;23.58;;;;;;;4.28;87.44;102195.38;5069513;28;20048;-76
2022/03/16 02:00:22;;;;;;;37.80;23.88;;;;;;;4.31;88.22;102203.28;5069428;28;20039;-78
2022/03/16 02:02:47;;;;;;;36.92;23.55;;;;;;;4.32;88.05;102189.94;5069900;28;20527;-79
2022/03/16 02:05:13;;;;;;;36.10;23.05;;;;;;;4.33;87.91;102182.81;5063840;28;20066;-78
2022/03/16 02:07:41;;;;;;;34.03;22.13;;;;;;;4.36;88.21;102178.31;5055304;28;20025;-78
2022/03/16 02:10:07;;;;;;;37.22;23.55;;;;;;;4.38;87.81;102181.78;5066107;28;20082;-78
2022/03/16 02:12:46;;;;;;;36.85;21.25;;;;;;;4.38;87.67;102180.94;5062576;28;20432;-79
2022/03/16 02:15:12;;;;;;;39.70;23.45;;;;;;;4.38;86.76;102172.94;5068774;28;20574;-78
2022/03/16 02:17:38;;;;;;;36.88;21.20;;;;;;;4.37;87.41;102169.38;5069645;28;20036;-79
2022/03/16 02:20:05;;;;;;;33.75;21.40;;;;;;;4.38;87.11;102179.13;5068140;28;20410;-78
2022/03/16 02:22:33;;;;;;;30.98;19.25;;;;;;;4.41;86.99;102174.63;5068876;28;20036;-79
2022/03/16 02:24:58;;;;;;;34.13;20.83;;;;;;;4.43;87.29;102180.81;5067247;28;20021;-79
2022/03/16 02:27:23;;;;;;;34.63;19.52;;;;;;;4.42;87.10;102179.91;5066092;28;20066;-79
2022/03/16 02:29:51;;;;;;;33.47;20.52;;;;;;;4.43;87.17;102179.00;5067418;28;20392;-79
2022/03/16 02:32:17;;;;;;;31.17;18.77;;;;;;;4.43;87.46;102178.13;5067394;28;20028;-79
2022/03/16 02:34:42;;;;;;;32.92;20.35;;;;;;;4.44;87.07;102178.09;5068392;28;20118;-79
2022/03/16 02:37:07;;;;;;;34.45;20.70;;;;;;;4.44;86.99;102175.44;5066905;28;20045;-79
2022/03/16 02:39:33;;;;;;;32.70;19.42;;;;;;;4.43;86.94;102180.81;5069098;28;20032;-79
2022/03/16 02:41:58;;;;;;;31.98;19.77;;;;;;;4.43;87.06;102188.78;5067717;28;20418;-79
2022/03/16 02:44:23;;;;;;;33.20;20.27;;;;;;;4.43;87.59;102178.13;5065393;28;20028;-79
2022/03/16 02:46:49;;;;;;;31.50;18.80;;;;;;;4.42;87.25;102174.59;5067531;28;20047;-80
2022/03/16 02:49:14;;;;;;;34.08;19.70;;;;;;;4.40;87.16;102176.41;5066761;28;20502;-79
2022/03/16 02:51:39;;;;;;;33.80;20.15;;;;;;;4.39;87.78;102172.00;5066947;28;20408;-78
2022/03/16 02:54:05;;;;;;;32.33;19.33;;;;;;;4.40;87.73;102163.09;5066864;28;20484;-78
2022/03/16 02:56:30;;;;;;;32.20;19.20;;;;;;;4.39;87.66;102156.03;5068511;28;20277;-78
2022/03/16 02:58:56;;;;;;;31.65;20.98;;;;;;;4.38;87.12;102152.50;5066681;28;20107;-79
2022/03/16 03:01:21;;;;;;;36.72;20.67;;;;;;;4.38;87.39;102149.84;5068843;28;20036;-79
2022/03/16 03:03:47;;;;;;;35.40;21.90;;;;;;;4.40;87.02;102151.59;5066991;28;20029;-79
2022/03/16 03:06:12;;;;;;;32.00;19.67;;;;;;;4.36;87.30;102156.13;5066078;28;20484;-79
2022/03/16 03:08:37;;;;;;;31.45;19.52;;;;;;;4.35;87.28;102155.25;5063017;28;20021;-80
2022/03/16 03:11:02;;;;;;;31.77;19.88;;;;;;;4.35;87.52;102155.25;5066079;28;20068;-79
2022/03/16 03:13:28;;;;;;;32.88;19.92;;;;;;;4.34;87.08;102153.50;5065787;28;20199;-79
2022/03/16 03:15:53;;;;;;;32.85;20.20;;;;;;;4.33;86.87;102159.75;5066116;28;20024;-79
2022/03/16 03:18:18;;;;;;;33.92;19.65;;;;;;;4.32;86.85;102151.78;5067863;28;20817;-79
2022/03/16 03:20:43;;;;;;;32.10;19.65;;;;;;;4.29;87.08;102157.19;5067512;28;20029;-79
2022/03/16 03:23:09;;;;;;;32.00;19.98;;;;;;;4.27;87.19;102159.03;5066634;28;20437;-79
2022/03/16 03:25:34;;;;;;;32.25;20.08;;;;;;;4.26;87.73;102170.56;5068469;28;20095;-79
2022/03/16 03:27:59;;;;;;;36.92;18.30;;;;;;;4.23;87.65;102160.00;5067033;28;20032;-79
2022/03/16 03:30:25;;;;;;;32.08;18.83;;;;;;;4.22;87.43;102174.22;5066641;28;20020;-79
2022/03/16 03:32:50;;;;;;;33.75;19.27;;;;;;;4.23;87.91;102170.66;5068101;28;20391;-79
2022/03/16 03:35:15;;;;;;;30.08;18.42;;;;;;;4.20;87.84;102167.19;5066867;28;20032;-79
2022/03/16 03:37:40;;;;;;;34.95;20.13;;;;;;;4.19;88.02;102169.88;5049990;28;20466;-79
2022/03/16 03:40:09;;;;;;;30.05;19.13;;;;;;;4.19;88.02;102168.06;5067669;28;20112;-79
2022/03/16 03:42:34;;;;;;;34.53;19.55;;;;;;;4.19;88.05;102160.09;5064458;28;20039;-79
2022/03/16 03:45:00;;;;;;;31.67;19.02;;;;;;;4.17;88.17;102167.25;5063342;28;20115;-78
2022/03/16 03:47:25;;;;;;;29.50;17.60;;;;;;;4.16;88.60;102160.19;5065101;28;20476;-78
2022/03/16 03:49:50;;;;;;;31.02;20.05;;;;;;;4.17;88.47;102156.63;5061448;28;20040;-78
2022/03/16 03:52:15;;;;;;;32.45;19.00;;;;;;;4.17;88.66;102155.72;5068154;28;20035;-78
2022/03/16 03:54:41;;;;;;;30.65;18.08;;;;;;;4.18;88.38;102165.47;5066608;28;20033;-79
2022/03/16 03:57:09;;;;;;;30.90;18.27;;;;;;;4.19;88.49;102159.22;5066517;28;20033;-78
2022/03/16 03:59:35;;;;;;;32.47;20.13;;;;;;;4.20;88.31;102161.84;5062805;28;20016;-79
2022/03/16 04:02:00;;;;;;;31.95;17.60;;;;;;;4.23;88.20;102162.69;5062649;28;20068;-79
2022/03/16 04:04:25;;;;;;;31.83;18.98;;;;;;;4.20;88.23;102156.53;5061810;28;20555;-79
2022/03/16 04:06:51;;;;;;;33.30;19.05;;;;;;;4.20;88.13;102156.53;5057986;28;20032;-79
2022/03/16 04:09:16;;;;;;;30.65;18.95;;;;;;;4.20;88.36;102150.31;5067995;28;20028;-79
2022/03/16 04:11:42;;;;;;;31.40;18.80;;;;;;;4.19;88.30;102149.44;5066512;28;20098;-79
2022/03/16 04:14:07;;;;;;;32.20;20.30;;;;;;;4.20;88.22;102143.22;5064927;28;20039;-79
2022/03/16 04:16:32;;;;;;;29.52;19.63;;;;;;;4.19;88.16;102149.44;5061969;28;20391;-79
2022/03/16 04:18:58;;;;;;;33.05;19.65;;;;;;;4.19;88.33;102144.13;5068229;28;20044;-79
2022/03/16 04:21:24;;;;;;;31.45;19.42;;;;;;;4.22;88.15;102150.28;5064949;28;20032;-79
2022/03/16 04:23:49;;;;;;;34.60;21.20;;;;;;;4.21;87.93;102152.06;5066094;28;20490;-79
2022/03/16 04:26:15;;;;;;;34.22;19.60;;;;;;;4.19;87.95;102154.78;5066100;28;20047;-79
2022/03/16 04:28:41;;;;;;;32.53;19.27;;;;;;;4.18;88.46;102150.34;5065915;28;20066;-79
2022/03/16 04:31:06;;;;;;;30.45;20.15;;;;;;;4.20;88.36;102150.31;5066395;28;20382;-79
2022/03/16 04:33:32;;;;;;;33.55;19.02;;;;;;;4.19;88.07;102148.59;5067535;28;20446;-79
2022/03/16 04:35:57;;;;;;;33.88;20.27;;;;;;;4.19;88.07;102143.28;5070895;28;20047;-79
2022/03/16 04:38:22;;;;;;;31.98;20.13;;;;;;;4.18;88.16;102145.03;5071338;28;20437;-79
2022/03/16 04:40:48;;;;;;;33.45;20.95;;;;;;;4.18;88.23;102147.69;5070638;28;20032;-79
2022/03/16 04:43:14;;;;;;;35.13;21.70;;;;;;;4.18;88.43;102146.84;5068371;28;20101;-79
2022/03/16 04:45:40;;;;;;;33.58;20.25;;;;;;;4.18;88.28;102152.16;5068082;28;20115;-79
2022/03/16 04:48:09;;;;;;;37.13;21.27;;;;;;;4.17;88.01;102155.72;5069933;28;20441;-79
2022/03/16 04:50:36;;;;;;;32.70;20.17;;;;;;;4.14;88.19;102155.78;5070542;28;20024;-79
2022/03/16 04:53:02;;;;;;;34.20;22.48;;;;;;;4.13;88.40;102154.94;5071257;28;20029;-79
2022/03/16 04:55:28;;;;;;;36.45;20.85;;;;;;;4.14;88.55;102150.47;5070799;28;20128;-79
2022/03/16 04:57:53;;;;;;;30.77;20.27;;;;;;;4.14;88.46;102148.72;5068262;28;20032;-79
2022/03/16 05:00:18;;;;;;;33.47;21.48;;;;;;;4.12;88.58;102147.00;5069136;28;20060;-79
2022/03/16 05:02:44;;;;;;;33.80;21.90;;;;;;;4.12;88.42;102150.50;5066985;28;20383;-79
2022/03/16 05:05:12;;;;;;;36.72;22.88;;;;;;;4.14;88.59;102161.13;5068297;28;20037;-79
2022/03/16 05:07:38;;;;;;;38.40;23.65;;;;;;;4.13;88.82;102162.91;5069516;28;20066;-79
2022/03/16 05:10:05;;;;;;;35.33;22.48;;;;;;;4.15;88.18;102163.75;5069578;28;20043;-79
2022/03/16 05:12:38;;;;;;;33.28;21.85;;;;;;;4.14;88.28;102159.34;5061855;28;20452;-79
2022/03/16 05:15:06;;;;;;;34.67;21.75;;;;;;;4.14;88.44;102150.47;5067423;28;20396;-79
2022/03/16 05:17:31;;;;;;;31.95;20.88;;;;;;;4.16;88.36;102146.00;5064854;28;20024;-79
2022/03/16 05:19:56;;;;;;;35.00;21.92;;;;;;;4.16;88.31;102144.22;5070610;28;20516;-79
2022/03/16 05:22:21;;;;;;;33.17;21.23;;;;;;;4.17;88.37;102145.97;5068846;28;20028;-79
2022/03/16 05:24:47;;;;;;;34.50;21.05;;;;;;;4.18;88.24;102142.38;5068985;28;20131;-79
2022/03/16 05:27:12;;;;;;;34.95;22.33;;;;;;;4.17;88.10;102137.09;5068273;28;20040;-79
2022/03/16 05:29:37;;;;;;;32.33;21.08;;;;;;;4.15;88.23;102137.13;5068448;28;20387;-79
2022/03/16 05:32:03;;;;;;;34.38;20.10;;;;;;;4.16;88.37;102143.34;5068250;28;20055;-79
2022/03/16 05:34:28;;;;;;;32.42;20.88;;;;;;;4.14;88.11;102131.84;5068085;28;20614;-79
2022/03/16 05:36:53;;;;;;;37.72;22.33;;;;;;;4.11;88.63;102135.47;5064834;28;20035;-78
2022/03/16 05:39:18;;;;;;;30.38;20.08;;;;;;;4.10;88.54;102135.50;5069466;28;20187;-79
2022/03/16 05:41:44;;;;;;;33.45;20.95;;;;;;;4.11;88.85;102134.59;5069983;28;20024;-79
2022/03/16 05:44:10;;;;;;;32.72;20.63;;;;;;;4.08;88.74;102138.19;5069282;28;20116;-79
2022/03/16 05:46:35;;;;;;;34.00;19.88;;;;;;;4.08;88.83;102137.34;5063658;28;20493;-79
2022/03/16 05:49:00;;;;;;;31.88;20.70;;;;;;;4.10;88.50;102146.13;5069821;28;20033;-79
2022/03/16 05:51:26;;;;;;;34.13;19.20;;;;;;;4.11;88.97;102155.88;5068380;28;20064;-79
2022/03/16 05:53:51;;;;;;;30.15;18.42;;;;;;;4.11;88.97;102158.53;5068303;28;20033;-79
2022/03/16 05:56:16;;;;;;;32.58;18.90;;;;;;;4.11;89.04;102158.53;5068564;28;20468;-79
2022/03/16 05:58:41;;;;;;;31.45;20.63;;;;;;;4.12;88.56;102165.63;5069062;28;20037;-79
2022/03/16 06:01:07;;;;;;;32.70;20.77;;;;;;;4.12;88.61;102158.50;5066717;28;20111;-79
2022/03/16 06:03:32;;;;;;;33.60;19.33;;;;;;;4.14;88.54;102154.03;5067780;28;20024;-79
2022/03/16 06:05:57;;;;;;;30.45;19.40;;;;;;;4.15;88.30;102149.56;5073317;28;20439;-79
2022/03/16 06:08:22;;;;;;;31.27;19.83;;;;;;;4.16;88.51;102168.16;5067050;28;20115;-79
2022/03/16 06:10:48;;;;;;;30.15;18.80;;;;;;;4.17;88.10;102164.59;5050127;28;20051;-79
2022/03/16 06:13:13;;;;;;;30.70;18.88;;;;;;;4.19;88.43;102170.75;5065171;28;20032;-79
2022/03/16 06:15:41;;;;;;;32.20;20.70;;;;;;;4.20;87.80;102168.94;5067561;28;20474;-79
2022/03/16 06:18:06;;;;;;;31.25;18.92;;;;;;;4.20;88.11;102177.81;5069232;28;20028;-79
2022/03/16 06:20:33;;;;;;;33.55;19.00;;;;;;;4.20;88.13;102177.81;5068891;28;20043;-79
2022/03/16 06:22:59;;;;;;;32.83;18.17;;;;;;;4.23;87.94;102174.19;5068566;28;20021;-79
2022/03/16 06:25:24;;;;;;;32.63;19.15;;;;;;;4.24;88.22;102164.44;5067134;28;20032;-79
2022/03/16 06:27:50;;;;;;;29.40;17.08;;;;;;;4.26;88.10;102159.94;5063967;28;20104;-79
2022/03/16 06:30:15;;;;;;;30.65;18.65;;;;;;;4.26;87.99;102170.56;5066486;28;20108;-79
2022/03/16 06:32:44;;;;;;;31.42;19.00;;;;;;;4.29;88.22;102170.50;5069490;28;20136;-79
2022/03/16 06:35:10;;;;;;;32.00;18.87;;;;;;;4.27;88.19;102165.22;5060015;28;20039;-79
2022/03/16 06:37:35;;;;;;;33.05;19.23;;;;;;;4.29;88.05;102174.06;5069101;28;20756;-79
2022/03/16 06:40:01;;;;;;;32.67;19.02;;;;;;;4.30;87.93;102167.78;5059912;28;20028;-79
2022/03/16 06:42:26;;;;;;;29.30;18.38;;;;;;;4.31;87.84;102169.56;5059748;28;20032;-79
2022/03/16 06:44:51;;;;;;;30.80;18.15;;;;;;;4.33;87.77;102164.19;5054757;28;20025;-79
2022/03/16 06:47:17;;;;;;;28.92;17.48;;;;;;;4.34;87.60;102163.28;5061643;28;20032;-79
2022/03/16 06:49:42;;;;;;;30.13;18.50;;;;;;;4.35;87.76;102157.06;5066714;28;20028;-79
2022/03/16 06:52:07;;;;;;;29.48;17.63;;;;;;;4.40;87.57;102160.44;5068521;28;20058;-79
2022/03/16 06:54:33;;;;;;;29.73;16.77;;;;;;;4.42;87.81;102153.28;5066457;28;20446;-78
2022/03/16 06:56:58;;;;;;;30.30;17.65;;;;;;;4.44;87.77;102142.63;5068788;28;20446;-79
2022/03/16 06:59:23;;;;;;;30.30;16.92;;;;;;;4.47;87.71;102137.22;5061412;28;20067;-79
2022/03/16 07:01:48;;;;;;;29.33;16.35;;;;;;;4.50;87.56;102137.13;5067507;28;20036;-79
2022/03/16 07:04:14;;;;;;;28.48;15.70;;;;;;;4.52;87.54;102133.53;5058050;28;20453;-79
2022/03/16 07:06:39;;;;;;;27.55;15.82;;;;;;;4.55;87.25;102133.44;5059619;28;20106;-79
2022/03/16 07:09:05;;;;;;;32.35;17.92;;;;;;;4.61;87.22;102142.16;5065839;28;20032;-79
2022/03/16 07:11:30;;;;;;;30.40;17.38;;;;;;;4.66;87.19;102145.56;5056669;28;20059;-79
2022/03/16 07:16:41;;;;;;;29.98;17.02;;;;;;;4.77;86.79;102140.78;5065335;28;20062;-79
2022/03/16 07:19:07;;;;;;;30.40;16.00;;;;;;;4.83;87.03;102147.75;5065007;28;20118;-79
2022/03/16 07:21:32;;;;;;;27.52;15.18;;;;;;;4.88;86.69;102141.38;5068138;28;20108;-79
2022/03/16 07:23:57;;;;;;;27.25;15.55;;;;;;;4.95;86.47;102143.84;5066509;28;20020;-79
2022/03/16 07:26:22;;;;;;;30.75;15.38;;;;;;;5.01;86.27;102135.72;5068243;28;20040;-79
2022/03/16 07:28:47;;;;;;;27.77;15.20;;;;;;;5.07;86.50;102132.84;5066196;28;20059;-79
2022/03/16 07:31:13;;;;;;;29.92;16.00;;;;;;;5.11;85.51;102121.19;5056398;28;20032;-79
2022/03/16 07:33:38;;;;;;;30.08;15.65;;;;;;;5.16;85.36;102121.91;5068702;28;20381;-79
2022/03/16 07:36:04;;;;;;;31.08;17.63;;;;;;;5.22;85.35;102116.38;5067008;28;20037;-79
2022/03/16 07:38:29;;;;;;;29.42;15.80;;;;;;;5.30;85.16;102104.63;5066235;28;20040;-80
2022/03/16 07:40:54;;;;;;;30.80;16.05;;;;;;;5.35;84.47;102111.56;5066751;28;20028;-80
2022/03/16 07:43:20;;;;;;;28.90;16.20;;;;;;;5.43;84.29;102113.97;5053845;28;20447;-79
2022/03/16 07:45:45;;;;;;;27.95;14.18;;;;;;;5.50;84.46;102101.34;5064738;28;20081;-79
2022/03/16 07:48:11;;;;;;;28.48;16.08;;;;;;;5.56;84.08;102110.03;5069259;28;20403;-80
2022/03/16 07:50:36;;;;;;;29.35;15.18;;;;;;;5.65;83.90;102115.97;5053800;28;20487;-79
2022/03/16 07:53:01;;;;;;;26.83;14.60;;;;;;;5.71;82.69;102113.09;5057331;28;20033;-80
2022/03/16 07:55:27;;;;;;;27.25;14.45;;;;;;;5.76;82.60;102114.69;5063885;28;20108;-79
2022/03/16 07:57:54;;;;;;;28.05;13.93;;;;;;;5.82;82.54;102116.28;5060631;28;20079;-79
2022/03/16 08:00:20;;;;;;;26.30;14.00;;;;;;;5.87;82.61;102122.38;5054492;28;20115;-79
2022/03/16 08:02:45;;;;;;;27.85;14.82;;;;;;;5.95;82.21;102125.63;5063633;28;20235;-80
2022/03/16 08:05:12;;;;;;;27.77;14.85;;;;;;;6.00;82.17;102117.50;5062382;28;20484;-80
2022/03/16 08:07:37;;;;;;;27.45;14.75;;;;;;;6.07;82.25;102116.38;5051323;28;20024;-80
2022/03/16 08:10:03;;;;;;;29.63;15.65;;;;;;;6.14;81.69;102111.72;5063998;28;20397;-80
2022/03/16 08:12:30;;;;;;;27.48;15.02;;;;;;;6.19;81.33;102114.22;5065551;28;20044;-79
2022/03/16 08:14:55;;;;;;;25.65;13.40;;;;;;;6.24;81.11;102113.13;5065169;28;20029;-79
2022/03/16 08:17:21;;;;;;;28.80;13.40;;;;;;;6.27;80.33;102113.03;5066769;28;20059;-80
2022/03/16 08:19:46;;;;;;;27.88;14.82;;;;;;;6.31;80.36;102100.44;5063079;28;20041;-80
2022/03/16 08:22:11;;;;;;;28.63;15.38;;;;;;;6.36;80.79;102106.47;5048714;28;20040;-79
2022/03/16 08:24:37;;;;;;;26.73;14.70;;;;;;;6.41;79.87;102117.00;5067506;28;20032;-80
2022/03/16 08:27:03;;;;;;;27.05;14.38;;;;;;;6.46;79.93;102121.25;5065332;28;20066;-80
2022/03/16 08:29:28;;;;;;;29.63;15.55;;;;;;;6.51;80.25;102118.41;5060735;28;20116;-80
2022/03/16 08:31:54;;;;;;;25.80;13.68;;;;;;;6.58;79.68;102111.91;5064518;28;20116;-80
2022/03/16 08:34:19;;;;;;;28.80;14.98;;;;;;;6.64;79.17;102106.34;5064371;28;20659;-80
2022/03/16 08:36:45;;;;;;;28.58;15.07;;;;;;;6.71;79.46;102104.34;5062856;28;20024;-80
2022/03/16 08:39:10;;;;;;;29.58;16.15;;;;;;;6.80;79.55;102100.47;5066186;28;20198;-80
2022/03/16 08:41:35;;;;;;;28.60;14.80;;;;;;;6.90;78.95;102114.34;5066821;28;20028;-80
2022/03/16 08:44:02;;;;;;;28.33;14.35;;;;;;;6.96;79.00;102112.31;5063158;28;20040;-80
2022/03/16 08:46:27;;;;;;;29.48;15.65;;;;;;;7.03;78.95;102118.31;5068277;28;20093;-80
2022/03/16 08:48:52;;;;;;;26.30;14.35;;;;;;;7.07;77.88;102119.94;5043624;28;20040;-80
2022/03/16 08:51:18;;;;;;;27.42;14.60;;;;;;;7.15;77.74;102133.00;5059728;28;20349;-80
2022/03/16 08:53:43;;;;;;;29.48;15.02;;;;;;;7.22;78.30;102128.28;5063924;28;20101;-80
2022/03/16 08:56:12;;;;;;;28.10;14.95;;;;;;;7.32;77.94;102132.34;5059432;28;20051;-80
2022/03/16 08:58:37;;;;;;;26.98;14.75;;;;;;;7.35;76.74;102142.94;5063544;28;20029;-80
2022/03/16 09:01:03;;;;;;;26.77;14.68;;;;;;;7.42;76.23;102148.91;5062143;28;20028;-80
2022/03/16 09:03:28;;;;;;;28.17;14.85;;;;;;;7.47;76.66;102137.09;5061981;28;20486;-80
2022/03/16 09:05:54;;;;;;;24.80;13.68;;;;;;;7.52;76.04;102142.25;5065109;28;20599;-80
2022/03/16 09:08:19;;;;;;;28.65;16.30;;;;;;;7.56;76.09;102138.53;5064134;28;20043;-81
2022/03/16 09:10:45;;;;;;;30.17;16.73;;;;;;;7.61;75.39;102135.66;5061354;28;20060;-80
2022/03/16 09:13:10;;;;;;;29.13;15.73;;;;;;;7.65;76.13;102131.94;5062614;28;20438;-80
2022/03/16 09:15:36;;;;;;;29.60;15.60;;;;;;;7.68;75.84;102134.50;5063139;28;20024;-80
2022/03/16 09:18:01;;;;;;;28.00;15.48;;;;;;;7.72;74.99;102122.72;5065504;28;20063;-81
2022/03/16 09:20:27;;;;;;;28.65;15.18;;;;;;;7.78;75.45;102126.97;5063704;28;20031;-80
2022/03/16 09:22:53;;;;;;;28.83;15.45;;;;;;;7.82;75.30;102125.91;5058318;28;20047;-80
2022/03/16 09:25:20;;;;;;;30.95;16.15;;;;;;;7.84;75.20;102116.00;5062158;28;20396;-80
2022/03/16 09:27:45;;;;;;;29.13;14.57;;;;;;;7.90;75.34;102123.75;5055852;28;20037;-80
2022/03/16 09:30:10;;;;;;;30.23;15.93;;;;;;;7.96;74.22;102114.63;5061767;28;20373;-80
2022/03/16 09:32:37;;;;;;;27.75;15.68;;;;;;;8.00;74.86;102113.56;5053828;28;20051;-80
2022/03/16 09:35:04;;;;;;;31.42;16.40;;;;;;;8.08;75.02;102110.53;5055881;28;20077;-80
2022/03/16 09:37:29;;;;;;;32.05;16.08;;;;;;;8.14;74.94;102118.31;5061868;28;20033;-80
2022/03/16 09:39:55;;;;;;;37.22;17.25;;;;;;;8.19;74.56;102116.31;5065553;28;20040;-80
2022/03/16 09:42:20;;;;;;;30.90;14.75;;;;;;;8.27;74.60;102108.81;5048547;28;20046;-80
2022/03/16 09:44:47;;;;;;;29.80;15.77;;;;;;;8.31;74.69;102099.69;5061584;28;20646;-81
2022/03/16 09:47:12;;;;;;;30.33;14.23;;;;;;;8.38;73.76;102111.91;5061067;28;20058;-80
2022/03/16 09:49:39;;;;;;;31.77;16.98;;;;;;;8.47;73.55;102109.78;5065516;28;20016;-80
2022/03/16 09:52:07;;;;;;;34.75;17.15;;;;;;;8.51;73.38;102100.69;5066336;28;20383;-81
2022/03/16 09:54:33;;;;;;;29.95;17.58;;;;;;;8.58;73.51;102099.47;5062162;28;20028;-80
2022/03/16 09:56:59;;;;;;;29.30;15.07;;;;;;;8.63;73.88;102088.53;5060878;28;20115;-80
2022/03/16 09:59:24;;;;;;;30.83;16.83;;;;;;;8.68;74.17;102098.13;5063364;28;20128;-80
2022/03/16 10:01:58;;;;;;;29.20;17.02;;;;;;;8.74;73.25;102103.19;5064976;28;20033;-80
2022/03/16 10:04:33;;;;;;;27.88;14.13;;;;;;;8.81;73.33;102094.88;5063768;28;20021;-80
2022/03/16 10:07:00;;;;;;;28.02;15.02;;;;;;;8.88;72.66;102094.50;5053589;28;20086;-80
2022/03/16 10:15:03;;;;;;;26.83;14.05;;;;;;;9.07;72.18;102088.28;5060089;28;20090;-80
2022/03/16 10:17:43;;;;;;;28.35;14.77;;;;;;;9.15;72.81;102090.59;5066919;28;20036;-80
2022/03/16 10:20:28;;;;;;;27.52;14.70;;;;;;;9.21;72.55;102087.63;5064444;28;20044;-80
2022/03/16 10:22:56;;;;;;;29.92;15.45;;;;;;;9.28;71.22;102086.38;5044755;28;20040;-80
2022/03/16 10:25:22;;;;;;;28.13;14.90;;;;;;;9.33;71.71;102079.00;5062688;28;20368;-80
2022/03/16 10:27:48;;;;;;;28.20;14.85;;;;;;;9.40;71.70;102079.56;5060887;28;20051;-80
2022/03/16 10:30:13;;;;;;;26.67;13.55;;;;;;;9.47;70.56;102086.38;5052941;28;20021;-80
2022/03/16 10:32:39;;;;;;;26.35;13.27;;;;;;;9.54;70.55;102073.53;5047020;28;20388;-80
2022/03/16 10:35:05;;;;;;;25.38;12.68;;;;;;;9.59;70.41;102075.06;5062353;28;20025;-81
2022/03/16 10:37:34;;;;;;;25.70;12.65;;;;;;;9.66;70.33;102086.34;5059713;28;20027;-80
2022/03/16 10:40:00;;;;;;;26.10;13.55;;;;;;;9.69;70.14;102077.25;5062470;28;20093;-81
2022/03/16 10:48:14;;;;;;;25.95;12.75;;;;;;;9.87;70.36;102070.09;5066670;28;20242;-80
2022/03/16 10:50:40;;;;;;;25.88;12.85;;;;;;;9.95;69.72;102060.69;5061884;28;20400;-81
2022/03/16 10:53:06;;;;;;;26.48;13.20;;;;;;;10.03;70.39;102065.69;5066591;28;20347;-81
2022/03/16 10:55:31;;;;;;;26.27;13.05;;;;;;;10.07;69.60;102059.22;5065981;28;20020;-81
2022/03/16 10:57:58;;;;;;;25.02;11.88;;;;;;;10.15;70.22;102066.88;5065393;28;20043;-81
2022/03/16 11:00:27;;;;;;;24.08;12.00;;;;;;;10.22;69.58;102072.78;5059189;28;20070;-81
2022/03/16 11:02:55;;;;;;;25.75;12.48;;;;;;;10.31;70.11;102066.94;5066585;28;20038;-81
2022/03/16 11:05:20;;;;;;;26.15;13.30;;;;;;;10.38;69.35;102062.13;5060405;28;20089;-81
2022/03/16 11:07:49;;;;;;;25.15;13.10;;;;;;;10.43;68.03;102050.19;5058058;28;20040;-81
2022/03/16 11:10:16;;;;;;;26.30;12.05;;;;;;;10.46;68.56;102055.41;5058039;28;20064;-81
2022/03/16 11:15:25;;;;;;;26.00;13.10;;;;;;;10.51;68.91;102065.03;5054960;28;20120;-81
2022/03/16 11:17:54;;;;;;;24.15;12.50;;;;;;;10.52;68.23;102070.34;5064165;28;20537;-81
2022/03/16 11:20:20;;;;;;;24.08;11.90;;;;;;;10.54;68.83;102078.31;5047358;28;20052;-81
2022/03/16 11:26:23;;;;;;;24.55;12.35;;;;;;;10.65;69.37;102067.84;5054067;28;20048;-80
2022/03/16 11:29:08;;;;;;;26.20;14.02;;;;;;;10.75;68.95;102071.78;5066691;28;20032;-81
2022/03/16 11:31:34;;;;;;;26.58;12.88;;;;;;;10.83;69.39;102063.28;5059676;28;20057;-81